sensor_id;sensor_type;location;lat;lon;timestamp;temperature;humidity
7232;DHT22;3657;49.630;11.018;2023-12-29T00:01:56;8.10;99.90
7232;DHT22;3657;49.630;11.018;2023-12-29T00:04:24;8.10;99.90
7232;DHT22;3657;49.630;11.018;2023-12-29T00:06:51;8.10;99.90
7232;DHT22;3657;49.630;11.018;2023-12-29T00:09:18;8.10;99.90
7232;DHT22;3657;49.630;11.018;2023-12-29T00:11:46;8.10;99.90
7232;DHT22;3657;49.630;11.018;2023-12-29T00:14:13;8.10;99.90
7232;DHT22;3657;49.630;11.018;2023-12-29T00:16:41;8.10;99.90
7232;DHT22;3657;49.630;11.018;2023-12-29T00:19:09;8.10;99.90
7232;DHT22;3657;49.630;11.018;2023-12-29T00:21:36;8.10;99.90
7232;DHT22;3657;49.630;11.018;2023-12-29T00:24:04;8.10;99.90
7232;DHT22;3657;49.630;11.018;2023-12-29T00:26:31;8.10;99.90
7232;DHT22;3657;49.630;11.018;2023-12-29T00:28:58;8.10;99.90
7232;DHT22;3657;49.630;11.018;2023-12-29T00:31:24;8.10;99.90
7232;DHT22;3657;49.630;11.018;2023-12-29T00:33:53;8.10;99.90
7232;DHT22;3657;49.630;11.018;2023-12-29T00:36:20;8.10;99.90
7232;DHT22;3657;49.630;11.018;2023-12-29T00:38:46;8.10;99.90
7232;DHT22;3657;49.630;11.018;2023-12-29T00:41:13;8.10;99.90
7232;DHT22;3657;49.630;11.018;2023-12-29T00:43:40;8.10;99.90
7232;DHT22;3657;49.630;11.018;2023-12-29T00:46:07;8.10;99.90
7232;DHT22;3657;49.630;11.018;2023-12-29T00:48:34;8.00;99.90
7232;DHT22;3657;49.630;11.018;2023-12-29T00:51:03;8.00;99.90
7232;DHT22;3657;49.630;11.018;2023-12-29T00:53:30;8.00;99.90
7232;DHT22;3657;49.630;11.018;2023-12-29T00:55:57;8.00;99.90
7232;DHT22;3657;49.630;11.018;2023-12-29T00:58:24;8.00;99.90
7232;DHT22;3657;49.630;11.018;2023-12-29T01:00:51;8.00;99.90
7232;DHT22;3657;49.630;11.018;2023-12-29T01:03:17;8.10;99.90
7232;DHT22;3657;49.630;11.018;2023-12-29T01:05:45;8.10;99.90
7232;DHT22;3657;49.630;11.018;2023-12-29T01:08:13;8.10;99.90
7232;DHT22;3657;49.630;11.018;2023-12-29T01:10:40;8.10;99.90
7232;DHT22;3657;49.630;11.018;2023-12-29T01:13:06;8.10;99.90
7232;DHT22;3657;49.630;11.018;2023-12-29T01:15:33;8.10;99.90
7232;DHT22;3657;49.630;11.018;2023-12-29T01:18:00;8.10;99.90
7232;DHT22;3657;49.630;11.018;2023-12-29T01:20:27;8.10;99.90
7232;DHT22;3657;49.630;11.018;2023-12-29T01:22:53;8.10;99.90
7232;DHT22;3657;49.630;11.018;2023-12-29T01:25:21;8.10;99.90
7232;DHT22;3657;49.630;11.018;2023-12-29T01:27:49;8.10;99.90
7232;DHT22;3657;49.630;11.018;2023-12-29T01:30:16;8.10;99.90
7232;DHT22;3657;49.630;11.018;2023-12-29T01:32:42;8.10;99.90
7232;DHT22;3657;49.630;11.018;2023-12-29T01:35:09;8.10;99.90
7232;DHT22;3657;49.630;11.018;2023-12-29T01:37:36;8.10;99.90
7232;DHT22;3657;49.630;11.018;2023-12-29T01:40:03;8.10;99.90
7232;DHT22;3657;49.630;11.018;2023-12-29T01:42:31;8.10;99.90
7232;DHT22;3657;49.630;11.018;2023-12-29T01:44:59;8.00;99.90
7232;DHT22;3657;49.630;11.018;2023-12-29T01:47:27;8.00;99.90
7232;DHT22;3657;49.630;11.018;2023-12-29T01:49:54;8.00;99.90
7232;DHT22;3657;49.630;11.018;2023-12-29T01:52:21;8.00;99.90
7232;DHT22;3657;49.630;11.018;2023-12-29T01:54:50;8.00;99.90
7232;DHT22;3657;49.630;11.018;2023-12-29T01:57:19;8.00;99.90
7232;DHT22;3657;49.630;11.018;2023-12-29T01:59:47;8.00;99.90
7232;DHT22;3657;49.630;11.018;2023-12-29T02:02:14;8.00;99.90
7232;DHT22;3657;49.630;11.018;2023-12-29T02:04:42;8.00;99.90
7232;DHT22;3657;49.630;11.018;2023-12-29T02:07:08;8.00;99.90
7232;DHT22;3657;49.630;11.018;2023-12-29T02:09:36;8.00;99.90
7232;DHT22;3657;49.630;11.018;2023-12-29T02:12:03;7.90;99.90
7232;DHT22;3657;49.630;11.018;2023-12-29T02:14:30;7.90;99.90
7232;DHT22;3657;49.630;11.018;2023-12-29T02:17:03;7.90;99.90
7232;DHT22;3657;49.630;11.018;2023-12-29T02:19:37;7.90;99.90
7232;DHT22;3657;49.630;11.018;2023-12-29T02:22:05;7.90;99.90
7232;DHT22;3657;49.630;11.018;2023-12-29T02:24:33;8.00;99.90
7232;DHT22;3657;49.630;11.018;2023-12-29T02:27:08;8.00;99.90
7232;DHT22;3657;49.630;11.018;2023-12-29T02:29:38;8.00;99.90
7232;DHT22;3657;49.630;11.018;2023-12-29T02:32:08;8.00;99.90
7232;DHT22;3657;49.630;11.018;2023-12-29T02:34:38;8.00;99.90
7232;DHT22;3657;49.630;11.018;2023-12-29T02:37:07;8.00;99.90
7232;DHT22;3657;49.630;11.018;2023-12-29T02:39:35;8.00;99.90
7232;DHT22;3657;49.630;11.018;2023-12-29T02:42:03;8.00;99.90
7232;DHT22;3657;49.630;11.018;2023-12-29T02:44:30;8.00;99.90
7232;DHT22;3657;49.630;11.018;2023-12-29T02:46:57;8.00;99.90
7232;DHT22;3657;49.630;11.018;2023-12-29T02:49:26;8.00;99.90
7232;DHT22;3657;49.630;11.018;2023-12-29T02:51:52;8.00;99.90
7232;DHT22;3657;49.630;11.018;2023-12-29T02:54:19;8.00;99.90
7232;DHT22;3657;49.630;11.018;2023-12-29T02:56:46;8.00;99.90
7232;DHT22;3657;49.630;11.018;2023-12-29T02:59:14;8.00;99.90
7232;DHT22;3657;49.630;11.018;2023-12-29T03:01:40;8.10;99.90
7232;DHT22;3657;49.630;11.018;2023-12-29T03:04:07;8.10;99.90
7232;DHT22;3657;49.630;11.018;2023-12-29T03:06:34;8.10;99.90
7232;DHT22;3657;49.630;11.018;2023-12-29T03:09:01;8.10;99.90
7232;DHT22;3657;49.630;11.018;2023-12-29T03:11:27;8.10;99.90
7232;DHT22;3657;49.630;11.018;2023-12-29T03:13:54;8.00;99.90
7232;DHT22;3657;49.630;11.018;2023-12-29T03:16:22;8.10;99.90
7232;DHT22;3657;49.630;11.018;2023-12-29T03:18:48;8.00;99.90
7232;DHT22;3657;49.630;11.018;2023-12-29T03:21:15;8.00;99.90
7232;DHT22;3657;49.630;11.018;2023-12-29T03:23:42;8.00;99.90
7232;DHT22;3657;49.630;11.018;2023-12-29T03:26:09;8.00;99.90
7232;DHT22;3657;49.630;11.018;2023-12-29T03:28:36;8.00;99.90
7232;DHT22;3657;49.630;11.018;2023-12-29T03:31:02;8.00;99.90
7232;DHT22;3657;49.630;11.018;2023-12-29T03:33:30;8.00;99.90
7232;DHT22;3657;49.630;11.018;2023-12-29T03:35:57;8.00;99.90
7232;DHT22;3657;49.630;11.018;2023-12-29T03:38:24;8.00;99.90
7232;DHT22;3657;49.630;11.018;2023-12-29T03:40:51;8.00;99.90
7232;DHT22;3657;49.630;11.018;2023-12-29T03:43:17;7.90;99.90
7232;DHT22;3657;49.630;11.018;2023-12-29T03:45:44;7.90;99.90
7232;DHT22;3657;49.630;11.018;2023-12-29T03:48:11;7.90;99.90
7232;DHT22;3657;49.630;11.018;2023-12-29T03:50:39;8.00;99.90
7232;DHT22;3657;49.630;11.018;2023-12-29T03:53:05;8.00;99.90
7232;DHT22;3657;49.630;11.018;2023-12-29T03:55:32;8.00;99.90
7232;DHT22;3657;49.630;11.018;2023-12-29T03:57:59;8.00;99.90
7232;DHT22;3657;49.630;11.018;2023-12-29T04:00:27;7.90;99.90
7232;DHT22;3657;49.630;11.018;2023-12-29T04:02:54;7.90;99.90
7232;DHT22;3657;49.630;11.018;2023-12-29T04:05:20;7.90;99.90
7232;DHT22;3657;49.630;11.018;2023-12-29T04:07:48;7.90;99.90
7232;DHT22;3657;49.630;11.018;2023-12-29T04:10:14;7.90;99.90
7232;DHT22;3657;49.630;11.018;2023-12-29T04:12:41;7.90;99.90
7232;DHT22;3657;49.630;11.018;2023-12-29T04:15:08;7.90;99.90
7232;DHT22;3657;49.630;11.018;2023-12-29T04:17:35;8.00;99.90
7232;DHT22;3657;49.630;11.018;2023-12-29T04:20:02;7.90;99.90
7232;DHT22;3657;49.630;11.018;2023-12-29T04:22:29;7.90;99.90
7232;DHT22;3657;49.630;11.018;2023-12-29T04:24:57;7.90;99.90
7232;DHT22;3657;49.630;11.018;2023-12-29T04:27:24;8.00;99.90
7232;DHT22;3657;49.630;11.018;2023-12-29T04:29:51;8.00;99.90
7232;DHT22;3657;49.630;11.018;2023-12-29T04:32:18;8.00;99.90
7232;DHT22;3657;49.630;11.018;2023-12-29T04:34:44;8.00;99.90
7232;DHT22;3657;49.630;11.018;2023-12-29T04:37:11;8.00;99.90
7232;DHT22;3657;49.630;11.018;2023-12-29T04:39:38;7.90;99.90
7232;DHT22;3657;49.630;11.018;2023-12-29T04:42:06;7.90;99.90
7232;DHT22;3657;49.630;11.018;2023-12-29T04:44:33;7.90;99.90
7232;DHT22;3657;49.630;11.018;2023-12-29T04:47:00;7.90;99.90
7232;DHT22;3657;49.630;11.018;2023-12-29T04:49:26;7.90;99.90
7232;DHT22;3657;49.630;11.018;2023-12-29T04:51:53;7.90;99.90
7232;DHT22;3657;49.630;11.018;2023-12-29T04:54:20;7.90;99.90
7232;DHT22;3657;49.630;11.018;2023-12-29T04:56:46;7.90;99.90
7232;DHT22;3657;49.630;11.018;2023-12-29T04:59:14;8.00;99.90
7232;DHT22;3657;49.630;11.018;2023-12-29T05:01:41;8.00;99.90
7232;DHT22;3657;49.630;11.018;2023-12-29T05:04:08;8.00;99.90
7232;DHT22;3657;49.630;11.018;2023-12-29T05:06:34;8.10;99.90
7232;DHT22;3657;49.630;11.018;2023-12-29T05:09:01;8.10;99.90
7232;DHT22;3657;49.630;11.018;2023-12-29T05:11:28;8.10;99.90
7232;DHT22;3657;49.630;11.018;2023-12-29T05:13:54;8.10;99.90
7232;DHT22;3657;49.630;11.018;2023-12-29T05:16:22;8.10;99.90
7232;DHT22;3657;49.630;11.018;2023-12-29T05:18:49;8.10;99.90
7232;DHT22;3657;49.630;11.018;2023-12-29T05:21:16;8.10;99.90
7232;DHT22;3657;49.630;11.018;2023-12-29T05:23:43;8.10;99.90
7232;DHT22;3657;49.630;11.018;2023-12-29T05:26:10;8.10;99.90
7232;DHT22;3657;49.630;11.018;2023-12-29T05:28:37;8.10;99.90
7232;DHT22;3657;49.630;11.018;2023-12-29T05:31:04;8.10;99.90
7232;DHT22;3657;49.630;11.018;2023-12-29T05:33:32;8.10;99.90
7232;DHT22;3657;49.630;11.018;2023-12-29T05:36:06;8.00;99.90
7232;DHT22;3657;49.630;11.018;2023-12-29T05:38:33;8.00;99.90
7232;DHT22;3657;49.630;11.018;2023-12-29T05:41:00;8.00;99.90
7232;DHT22;3657;49.630;11.018;2023-12-29T05:43:28;8.00;99.90
7232;DHT22;3657;49.630;11.018;2023-12-29T05:45:55;8.00;99.90
7232;DHT22;3657;49.630;11.018;2023-12-29T05:48:22;8.00;99.90
7232;DHT22;3657;49.630;11.018;2023-12-29T05:50:51;8.00;99.90
7232;DHT22;3657;49.630;11.018;2023-12-29T05:53:17;7.90;99.90
7232;DHT22;3657;49.630;11.018;2023-12-29T05:55:44;7.90;99.90
7232;DHT22;3657;49.630;11.018;2023-12-29T05:58:12;7.90;99.90
7232;DHT22;3657;49.630;11.018;2023-12-29T06:00:38;7.90;99.90
7232;DHT22;3657;49.630;11.018;2023-12-29T06:03:06;7.90;99.90
7232;DHT22;3657;49.630;11.018;2023-12-29T06:05:33;7.90;99.90
7232;DHT22;3657;49.630;11.018;2023-12-29T06:08:01;7.80;99.90
7232;DHT22;3657;49.630;11.018;2023-12-29T06:10:27;7.80;99.90
7232;DHT22;3657;49.630;11.018;2023-12-29T06:12:54;7.80;99.90
7232;DHT22;3657;49.630;11.018;2023-12-29T06:15:20;7.80;99.90
7232;DHT22;3657;49.630;11.018;2023-12-29T06:17:47;7.70;99.90
7232;DHT22;3657;49.630;11.018;2023-12-29T06:20:14;7.70;99.90
7232;DHT22;3657;49.630;11.018;2023-12-29T06:22:41;7.70;99.90
7232;DHT22;3657;49.630;11.018;2023-12-29T06:25:10;7.70;99.90
7232;DHT22;3657;49.630;11.018;2023-12-29T06:27:37;7.70;99.90
7232;DHT22;3657;49.630;11.018;2023-12-29T06:30:05;7.70;99.90
7232;DHT22;3657;49.630;11.018;2023-12-29T06:32:32;7.70;99.90
7232;DHT22;3657;49.630;11.018;2023-12-29T06:34:59;7.70;99.90
7232;DHT22;3657;49.630;11.018;2023-12-29T06:37:26;7.70;99.90
7232;DHT22;3657;49.630;11.018;2023-12-29T06:39:52;7.60;99.90
7232;DHT22;3657;49.630;11.018;2023-12-29T06:42:20;7.60;99.90
7232;DHT22;3657;49.630;11.018;2023-12-29T06:44:48;7.60;99.90
7232;DHT22;3657;49.630;11.018;2023-12-29T06:47:15;7.60;99.90
7232;DHT22;3657;49.630;11.018;2023-12-29T06:49:41;7.60;99.90
7232;DHT22;3657;49.630;11.018;2023-12-29T06:52:08;7.60;99.90
7232;DHT22;3657;49.630;11.018;2023-12-29T06:54:35;7.60;99.90
7232;DHT22;3657;49.630;11.018;2023-12-29T06:57:01;7.60;99.90
7232;DHT22;3657;49.630;11.018;2023-12-29T06:59:29;7.60;99.90
7232;DHT22;3657;49.630;11.018;2023-12-29T07:01:56;7.60;99.90
7232;DHT22;3657;49.630;11.018;2023-12-29T07:04:23;7.60;99.90
7232;DHT22;3657;49.630;11.018;2023-12-29T07:06:49;7.60;99.90
7232;DHT22;3657;49.630;11.018;2023-12-29T07:09:16;7.60;99.90
7232;DHT22;3657;49.630;11.018;2023-12-29T07:11:47;7.60;99.90
7232;DHT22;3657;49.630;11.018;2023-12-29T07:14:14;7.70;99.90
7232;DHT22;3657;49.630;11.018;2023-12-29T07:16:42;7.70;99.90
7232;DHT22;3657;49.630;11.018;2023-12-29T07:19:08;7.70;99.90
7232;DHT22;3657;49.630;11.018;2023-12-29T07:21:35;7.70;99.90
7232;DHT22;3657;49.630;11.018;2023-12-29T07:24:02;7.70;99.90
7232;DHT22;3657;49.630;11.018;2023-12-29T07:26:28;7.70;99.90
7232;DHT22;3657;49.630;11.018;2023-12-29T07:28:55;7.70;99.90
7232;DHT22;3657;49.630;11.018;2023-12-29T07:31:22;7.70;99.90
7232;DHT22;3657;49.630;11.018;2023-12-29T07:33:51;7.80;99.90
7232;DHT22;3657;49.630;11.018;2023-12-29T07:36:18;7.80;99.90
7232;DHT22;3657;49.630;11.018;2023-12-29T07:38:44;7.80;99.90
7232;DHT22;3657;49.630;11.018;2023-12-29T07:41:11;7.80;99.90
7232;DHT22;3657;49.630;11.018;2023-12-29T07:43:38;7.80;99.90
7232;DHT22;3657;49.630;11.018;2023-12-29T07:46:04;7.90;99.90
7232;DHT22;3657;49.630;11.018;2023-12-29T07:48:31;7.90;99.90
7232;DHT22;3657;49.630;11.018;2023-12-29T07:51:05;7.90;99.90
7232;DHT22;3657;49.630;11.018;2023-12-29T07:53:31;7.90;99.90
7232;DHT22;3657;49.630;11.018;2023-12-29T07:55:58;7.90;99.90
7232;DHT22;3657;49.630;11.018;2023-12-29T07:58:25;7.90;99.90
7232;DHT22;3657;49.630;11.018;2023-12-29T08:00:51;7.90;99.90
7232;DHT22;3657;49.630;11.018;2023-12-29T08:03:18;7.90;99.90
7232;DHT22;3657;49.630;11.018;2023-12-29T08:05:45;7.90;99.90
7232;DHT22;3657;49.630;11.018;2023-12-29T08:08:13;7.90;99.90
7232;DHT22;3657;49.630;11.018;2023-12-29T08:10:40;8.00;99.90
7232;DHT22;3657;49.630;11.018;2023-12-29T08:13:07;7.90;99.90
7232;DHT22;3657;49.630;11.018;2023-12-29T08:15:34;7.90;99.90
7232;DHT22;3657;49.630;11.018;2023-12-29T08:18:02;7.90;99.90
7232;DHT22;3657;49.630;11.018;2023-12-29T08:20:29;7.90;99.90
7232;DHT22;3657;49.630;11.018;2023-12-29T08:22:56;8.00;99.90
7232;DHT22;3657;49.630;11.018;2023-12-29T08:25:24;8.00;99.90
7232;DHT22;3657;49.630;11.018;2023-12-29T08:27:51;8.00;99.90
7232;DHT22;3657;49.630;11.018;2023-12-29T08:30:18;8.10;99.90
7232;DHT22;3657;49.630;11.018;2023-12-29T08:32:44;8.10;99.90
7232;DHT22;3657;49.630;11.018;2023-12-29T08:35:11;8.10;99.90
7232;DHT22;3657;49.630;11.018;2023-12-29T08:37:38;8.10;99.90
7232;DHT22;3657;49.630;11.018;2023-12-29T08:40:04;8.10;99.90
7232;DHT22;3657;49.630;11.018;2023-12-29T08:42:33;8.10;99.90
7232;DHT22;3657;49.630;11.018;2023-12-29T08:45:00;8.10;99.90
7232;DHT22;3657;49.630;11.018;2023-12-29T08:47:27;8.10;99.90
7232;DHT22;3657;49.630;11.018;2023-12-29T08:49:54;8.20;99.90
7232;DHT22;3657;49.630;11.018;2023-12-29T08:52:20;8.20;99.90
7232;DHT22;3657;49.630;11.018;2023-12-29T08:54:47;8.20;99.90
7232;DHT22;3657;49.630;11.018;2023-12-29T08:57:14;8.20;99.90
7232;DHT22;3657;49.630;11.018;2023-12-29T08:59:42;8.20;99.90
7232;DHT22;3657;49.630;11.018;2023-12-29T09:02:09;8.30;99.90
7232;DHT22;3657;49.630;11.018;2023-12-29T09:04:35;8.40;99.90
7232;DHT22;3657;49.630;11.018;2023-12-29T09:07:02;8.40;99.90
7232;DHT22;3657;49.630;11.018;2023-12-29T09:09:30;8.40;99.90
7232;DHT22;3657;49.630;11.018;2023-12-29T09:11:57;8.50;99.90
7232;DHT22;3657;49.630;11.018;2023-12-29T09:14:23;8.50;99.90
7232;DHT22;3657;49.630;11.018;2023-12-29T09:16:52;8.50;99.90
7232;DHT22;3657;49.630;11.018;2023-12-29T09:19:19;8.50;99.90
7232;DHT22;3657;49.630;11.018;2023-12-29T09:21:46;8.60;99.90
7232;DHT22;3657;49.630;11.018;2023-12-29T09:24:12;8.70;99.90
7232;DHT22;3657;49.630;11.018;2023-12-29T09:26:39;8.80;99.90
7232;DHT22;3657;49.630;11.018;2023-12-29T09:29:05;9.00;99.90
7232;DHT22;3657;49.630;11.018;2023-12-29T09:31:33;9.10;99.90
7232;DHT22;3657;49.630;11.018;2023-12-29T09:34:01;9.20;99.90
7232;DHT22;3657;49.630;11.018;2023-12-29T09:36:28;9.30;99.90
7232;DHT22;3657;49.630;11.018;2023-12-29T09:38:54;9.50;99.90
7232;DHT22;3657;49.630;11.018;2023-12-29T09:41:23;9.40;99.90
7232;DHT22;3657;49.630;11.018;2023-12-29T09:43:51;9.40;99.90
7232;DHT22;3657;49.630;11.018;2023-12-29T09:46:19;9.30;99.90
7232;DHT22;3657;49.630;11.018;2023-12-29T09:48:51;9.20;99.90
7232;DHT22;3657;49.630;11.018;2023-12-29T09:51:20;9.20;99.90
7232;DHT22;3657;49.630;11.018;2023-12-29T09:53:49;9.20;99.90
7232;DHT22;3657;49.630;11.018;2023-12-29T09:56:16;9.20;99.90
7232;DHT22;3657;49.630;11.018;2023-12-29T09:58:43;9.10;99.90
7232;DHT22;3657;49.630;11.018;2023-12-29T10:01:12;9.10;99.90
7232;DHT22;3657;49.630;11.018;2023-12-29T10:03:40;9.10;99.90
7232;DHT22;3657;49.630;11.018;2023-12-29T10:06:07;9.10;99.90
7232;DHT22;3657;49.630;11.018;2023-12-29T10:08:37;9.20;99.90
7232;DHT22;3657;49.630;11.018;2023-12-29T10:11:05;9.20;99.90
7232;DHT22;3657;49.630;11.018;2023-12-29T10:13:33;9.20;99.90
7232;DHT22;3657;49.630;11.018;2023-12-29T10:16:07;9.20;99.90
7232;DHT22;3657;49.630;11.018;2023-12-29T10:18:40;9.20;99.90
7232;DHT22;3657;49.630;11.018;2023-12-29T10:21:17;9.20;99.90
7232;DHT22;3657;49.630;11.018;2023-12-29T10:23:52;9.10;99.90
7232;DHT22;3657;49.630;11.018;2023-12-29T10:26:23;9.10;99.90
7232;DHT22;3657;49.630;11.018;2023-12-29T10:28:51;9.10;99.90
7232;DHT22;3657;49.630;11.018;2023-12-29T10:31:18;9.10;99.90
7232;DHT22;3657;49.630;11.018;2023-12-29T10:33:45;9.10;99.90
7232;DHT22;3657;49.630;11.018;2023-12-29T10:36:16;9.10;99.90
7232;DHT22;3657;49.630;11.018;2023-12-29T10:38:43;9.10;99.90
7232;DHT22;3657;49.630;11.018;2023-12-29T10:41:15;9.00;99.90
7232;DHT22;3657;49.630;11.018;2023-12-29T10:43:43;9.00;99.90
7232;DHT22;3657;49.630;11.018;2023-12-29T10:46:13;9.10;99.90
7232;DHT22;3657;49.630;11.018;2023-12-29T10:48:40;9.10;99.90
7232;DHT22;3657;49.630;11.018;2023-12-29T10:51:07;9.10;99.90
7232;DHT22;3657;49.630;11.018;2023-12-29T10:53:36;9.10;99.90
7232;DHT22;3657;49.630;11.018;2023-12-29T10:56:04;9.20;99.90
7232;DHT22;3657;49.630;11.018;2023-12-29T10:58:32;9.20;99.90
7232;DHT22;3657;49.630;11.018;2023-12-29T11:01:14;9.30;99.90
7232;DHT22;3657;49.630;11.018;2023-12-29T11:03:41;9.30;99.90
7232;DHT22;3657;49.630;11.018;2023-12-29T11:06:08;9.30;99.90
7232;DHT22;3657;49.630;11.018;2023-12-29T11:08:35;9.40;99.90
7232;DHT22;3657;49.630;11.018;2023-12-29T11:11:03;9.40;99.90
7232;DHT22;3657;49.630;11.018;2023-12-29T11:13:32;9.30;99.90
7232;DHT22;3657;49.630;11.018;2023-12-29T11:15:59;9.30;99.90
7232;DHT22;3657;49.630;11.018;2023-12-29T11:18:27;9.30;99.90
7232;DHT22;3657;49.630;11.018;2023-12-29T11:20:56;9.30;99.90
7232;DHT22;3657;49.630;11.018;2023-12-29T11:23:23;9.30;99.90
7232;DHT22;3657;49.630;11.018;2023-12-29T11:25:50;9.40;99.90
7232;DHT22;3657;49.630;11.018;2023-12-29T11:28:18;9.40;99.90
7232;DHT22;3657;49.630;11.018;2023-12-29T11:30:46;9.40;99.90
7232;DHT22;3657;49.630;11.018;2023-12-29T11:33:20;9.40;99.90
7232;DHT22;3657;49.630;11.018;2023-12-29T11:35:52;9.40;99.90
7232;DHT22;3657;49.630;11.018;2023-12-29T11:38:37;9.40;99.90
7232;DHT22;3657;49.630;11.018;2023-12-29T11:41:10;9.40;99.90
7232;DHT22;3657;49.630;11.018;2023-12-29T11:43:40;9.40;99.90
7232;DHT22;3657;49.630;11.018;2023-12-29T11:46:34;9.50;99.90
7232;DHT22;3657;49.630;11.018;2023-12-29T11:49:01;9.50;99.90
7232;DHT22;3657;49.630;11.018;2023-12-29T11:51:31;9.60;99.90
7232;DHT22;3657;49.630;11.018;2023-12-29T11:53:59;9.70;99.90
7232;DHT22;3657;49.630;11.018;2023-12-29T11:56:31;9.70;99.90
7232;DHT22;3657;49.630;11.018;2023-12-29T11:59:15;9.80;99.90
7232;DHT22;3657;49.630;11.018;2023-12-29T12:01:46;9.80;99.90
7232;DHT22;3657;49.630;11.018;2023-12-29T12:04:35;9.80;99.90
7232;DHT22;3657;49.630;11.018;2023-12-29T12:07:03;9.90;99.90
7232;DHT22;3657;49.630;11.018;2023-12-29T12:09:30;10.00;99.90
7232;DHT22;3657;49.630;11.018;2023-12-29T12:11:58;10.00;99.90
7232;DHT22;3657;49.630;11.018;2023-12-29T12:14:48;10.20;99.90
7232;DHT22;3657;49.630;11.018;2023-12-29T12:17:32;10.20;99.90
7232;DHT22;3657;49.630;11.018;2023-12-29T12:20:02;10.30;99.90
7232;DHT22;3657;49.630;11.018;2023-12-29T12:22:30;10.50;99.90
7232;DHT22;3657;49.630;11.018;2023-12-29T12:24:58;10.70;99.90
7232;DHT22;3657;49.630;11.018;2023-12-29T12:27:26;10.80;99.90
7232;DHT22;3657;49.630;11.018;2023-12-29T12:29:54;10.80;99.90
7232;DHT22;3657;49.630;11.018;2023-12-29T12:32:23;10.70;99.90
7232;DHT22;3657;49.630;11.018;2023-12-29T12:34:51;10.70;99.90
7232;DHT22;3657;49.630;11.018;2023-12-29T12:37:21;10.70;99.90
7232;DHT22;3657;49.630;11.018;2023-12-29T12:39:48;10.60;99.90
7232;DHT22;3657;49.630;11.018;2023-12-29T12:42:15;10.70;99.90
7232;DHT22;3657;49.630;11.018;2023-12-29T12:44:47;10.80;99.90
7232;DHT22;3657;49.630;11.018;2023-12-29T12:47:19;10.80;99.90
7232;DHT22;3657;49.630;11.018;2023-12-29T12:49:51;10.70;99.90
7232;DHT22;3657;49.630;11.018;2023-12-29T12:52:18;10.70;99.90
7232;DHT22;3657;49.630;11.018;2023-12-29T12:54:45;10.60;99.90
7232;DHT22;3657;49.630;11.018;2023-12-29T12:57:17;10.70;99.90
7232;DHT22;3657;49.630;11.018;2023-12-29T12:59:44;10.70;99.90
7232;DHT22;3657;49.630;11.018;2023-12-29T13:02:10;10.60;99.90
7232;DHT22;3657;49.630;11.018;2023-12-29T13:04:39;10.60;99.90
7232;DHT22;3657;49.630;11.018;2023-12-29T13:07:08;10.70;99.90
7232;DHT22;3657;49.630;11.018;2023-12-29T13:09:36;10.60;99.90
7232;DHT22;3657;49.630;11.018;2023-12-29T13:12:09;10.60;99.90
7232;DHT22;3657;49.630;11.018;2023-12-29T13:14:36;10.50;99.90
7232;DHT22;3657;49.630;11.018;2023-12-29T13:17:07;10.50;99.90
7232;DHT22;3657;49.630;11.018;2023-12-29T13:19:35;10.50;99.90
7232;DHT22;3657;49.630;11.018;2023-12-29T13:22:02;10.50;99.90
7232;DHT22;3657;49.630;11.018;2023-12-29T13:24:34;10.50;99.90
7232;DHT22;3657;49.630;11.018;2023-12-29T13:27:04;10.50;99.90
7232;DHT22;3657;49.630;11.018;2023-12-29T13:29:32;10.40;99.90
7232;DHT22;3657;49.630;11.018;2023-12-29T13:32:04;10.40;99.90
7232;DHT22;3657;49.630;11.018;2023-12-29T13:34:36;10.30;99.90
7232;DHT22;3657;49.630;11.018;2023-12-29T13:37:09;10.40;99.90
7232;DHT22;3657;49.630;11.018;2023-12-29T13:39:46;10.40;99.90
7232;DHT22;3657;49.630;11.018;2023-12-29T13:42:19;10.40;99.90
7232;DHT22;3657;49.630;11.018;2023-12-29T13:44:47;10.40;99.90
7232;DHT22;3657;49.630;11.018;2023-12-29T13:47:16;10.50;99.90
7232;DHT22;3657;49.630;11.018;2023-12-29T13:49:43;10.50;99.90
7232;DHT22;3657;49.630;11.018;2023-12-29T13:52:09;10.50;99.90
7232;DHT22;3657;49.630;11.018;2023-12-29T13:54:44;10.50;99.90
7232;DHT22;3657;49.630;11.018;2023-12-29T13:57:11;10.50;99.90
7232;DHT22;3657;49.630;11.018;2023-12-29T13:59:37;10.40;99.90
7232;DHT22;3657;49.630;11.018;2023-12-29T14:02:20;10.40;99.90
7232;DHT22;3657;49.630;11.018;2023-12-29T14:04:47;10.40;99.90
7232;DHT22;3657;49.630;11.018;2023-12-29T14:07:14;10.40;99.90
7232;DHT22;3657;49.630;11.018;2023-12-29T14:09:41;10.40;99.90
7232;DHT22;3657;49.630;11.018;2023-12-29T14:12:09;10.30;99.90
7232;DHT22;3657;49.630;11.018;2023-12-29T14:14:36;10.30;99.90
7232;DHT22;3657;49.630;11.018;2023-12-29T14:17:02;10.30;99.90
7232;DHT22;3657;49.630;11.018;2023-12-29T14:19:34;10.30;99.90
7232;DHT22;3657;49.630;11.018;2023-12-29T14:22:01;10.40;99.90
7232;DHT22;3657;49.630;11.018;2023-12-29T14:24:28;10.40;99.90
7232;DHT22;3657;49.630;11.018;2023-12-29T14:26:56;10.40;99.90
7232;DHT22;3657;49.630;11.018;2023-12-29T14:29:26;10.30;99.90
7232;DHT22;3657;49.630;11.018;2023-12-29T14:31:52;10.40;99.90
7232;DHT22;3657;49.630;11.018;2023-12-29T14:34:21;10.40;99.90
7232;DHT22;3657;49.630;11.018;2023-12-29T14:36:48;10.40;99.90
7232;DHT22;3657;49.630;11.018;2023-12-29T14:39:15;10.30;99.90
7232;DHT22;3657;49.630;11.018;2023-12-29T14:41:41;10.30;99.90
7232;DHT22;3657;49.630;11.018;2023-12-29T14:44:08;10.30;99.90
7232;DHT22;3657;49.630;11.018;2023-12-29T14:46:37;10.30;99.90
7232;DHT22;3657;49.630;11.018;2023-12-29T14:49:04;10.30;99.90
7232;DHT22;3657;49.630;11.018;2023-12-29T14:51:31;10.20;99.90
7232;DHT22;3657;49.630;11.018;2023-12-29T14:53:58;10.20;99.90
7232;DHT22;3657;49.630;11.018;2023-12-29T14:56:24;10.20;99.90
7232;DHT22;3657;49.630;11.018;2023-12-29T14:58:51;10.20;99.90
7232;DHT22;3657;49.630;11.018;2023-12-29T15:01:18;10.20;99.90
7232;DHT22;3657;49.630;11.018;2023-12-29T15:03:46;10.20;99.90
7232;DHT22;3657;49.630;11.018;2023-12-29T15:06:12;10.10;99.90
7232;DHT22;3657;49.630;11.018;2023-12-29T15:08:39;10.10;99.90
7232;DHT22;3657;49.630;11.018;2023-12-29T15:11:06;10.10;99.90
7232;DHT22;3657;49.630;11.018;2023-12-29T15:13:33;10.00;99.90
7232;DHT22;3657;49.630;11.018;2023-12-29T15:16:01;10.00;99.90
7232;DHT22;3657;49.630;11.018;2023-12-29T15:18:29;10.00;99.90
7232;DHT22;3657;49.630;11.018;2023-12-29T15:20:57;10.00;99.90
7232;DHT22;3657;49.630;11.018;2023-12-29T15:23:24;10.00;99.90
7232;DHT22;3657;49.630;11.018;2023-12-29T15:25:53;9.90;99.90
7232;DHT22;3657;49.630;11.018;2023-12-29T15:28:19;9.90;99.90
7232;DHT22;3657;49.630;11.018;2023-12-29T15:30:47;9.90;99.90
7232;DHT22;3657;49.630;11.018;2023-12-29T15:33:15;9.80;99.90
7232;DHT22;3657;49.630;11.018;2023-12-29T15:35:42;9.80;99.90
7232;DHT22;3657;49.630;11.018;2023-12-29T15:38:10;9.80;99.90
7232;DHT22;3657;49.630;11.018;2023-12-29T15:40:37;9.80;99.90
7232;DHT22;3657;49.630;11.018;2023-12-29T15:43:04;9.80;99.90
7232;DHT22;3657;49.630;11.018;2023-12-29T15:45:33;9.70;99.90
7232;DHT22;3657;49.630;11.018;2023-12-29T15:48:00;9.70;99.90
7232;DHT22;3657;49.630;11.018;2023-12-29T15:50:26;9.70;99.90
7232;DHT22;3657;49.630;11.018;2023-12-29T15:52:53;9.70;99.90
7232;DHT22;3657;49.630;11.018;2023-12-29T15:55:21;9.60;99.90
7232;DHT22;3657;49.630;11.018;2023-12-29T15:57:48;9.60;99.90
7232;DHT22;3657;49.630;11.018;2023-12-29T16:00:15;9.60;99.90
7232;DHT22;3657;49.630;11.018;2023-12-29T16:02:42;9.50;99.90
7232;DHT22;3657;49.630;11.018;2023-12-29T16:05:09;9.50;99.90